Time;durP1;ratioP1;P1;durP2;ratioP2;P2;SDS_P1;SDS_P2;PMS_P1;PMS_P2;Temp;Humidity;BMP_temperature;BMP_pressure;BME280_temperature;BME280_humidity;BME280_pressure;Samples;Min_cycle;Max_cycle;Signal;HPM_P1;HPM_P2
2024/01/08 00:00:26;;;;;;;9.85;2.65;;;-2.50;99.90;;;;;;5003821;28;20030;-63
2024/01/08 00:02:52;;;;;;;3.50;2.22;;;-2.50;99.90;;;;;;5005902;28;20370;-63
2024/01/08 00:05:17;;;;;;;3.80;2.65;;;-2.50;99.90;;;;;;5005129;28;20537;-64
2024/01/08 00:07:43;;;;;;;5.38;2.03;;;-2.50;99.90;;;;;;5008032;28;20112;-65
2024/01/08 00:10:09;;;;;;;2.70;1.92;;;-2.50;99.90;;;;;;5003232;28;20022;-64
2024/01/08 00:12:34;;;;;;;3.90;2.55;;;-2.50;99.90;;;;;;5003670;28;20058;-64
2024/01/08 00:15:00;;;;;;;4.88;2.70;;;-2.60;99.90;;;;;;5000133;28;20033;-64
2024/01/08 00:17:25;;;;;;;4.13;2.35;;;-2.50;99.90;;;;;;5000786;28;20034;-63
2024/01/08 00:19:51;;;;;;;3.17;2.28;;;-2.50;99.90;;;;;;5004600;28;20018;-63
2024/01/08 00:22:16;;;;;;;3.88;2.47;;;-2.50;99.90;;;;;;5004373;28;20080;-64
2024/01/08 00:24:42;;;;;;;2.88;2.42;;;-2.50;99.90;;;;;;5004105;28;20038;-64
2024/01/08 00:27:07;;;;;;;4.00;2.42;;;-2.50;99.90;;;;;;5003946;28;20092;-63
2024/01/08 00:29:33;;;;;;;5.70;2.08;;;-2.50;99.90;;;;;;5003255;28;20036;-64
2024/01/08 00:31:59;;;;;;;5.50;1.90;;;-2.50;99.90;;;;;;5001331;28;20061;-63
2024/01/08 00:34:27;;;;;;;3.03;2.22;;;-2.50;99.90;;;;;;5003074;28;20124;-64
2024/01/08 00:36:53;;;;;;;5.63;1.85;;;-2.50;99.90;;;;;;5003057;28;20054;-64
2024/01/08 00:39:18;;;;;;;3.08;2.13;;;-2.50;99.90;;;;;;5003099;28;20022;-63
2024/01/08 00:41:44;;;;;;;5.55;2.20;;;-2.50;99.90;;;;;;5002482;28;20574;-64
2024/01/08 00:44:09;;;;;;;2.72;2.30;;;-2.50;99.90;;;;;;5004591;28;20112;-63
2024/01/08 00:46:37;;;;;;;2.85;1.60;;;-2.50;99.90;;;;;;5003665;28;20149;-63
2024/01/08 00:49:03;;;;;;;4.00;2.03;;;-2.50;99.90;;;;;;4998721;28;20431;-63
2024/01/08 00:51:29;;;;;;;2.83;2.55;;;-2.50;99.90;;;;;;4999895;28;20022;-64
2024/01/08 00:53:56;;;;;;;4.60;2.38;;;-2.50;99.90;;;;;;5001348;28;20478;-63
2024/01/08 00:56:22;;;;;;;5.38;2.22;;;-2.50;99.90;;;;;;4999677;28;20025;-63
2024/01/08 00:58:47;;;;;;;4.43;2.08;;;-2.50;99.90;;;;;;4999792;28;20026;-63
2024/01/08 01:01:13;;;;;;;4.88;2.13;;;-2.50;99.90;;;;;;4998315;28;20022;-62
2024/01/08 01:03:39;;;;;;;2.22;1.65;;;-2.50;99.90;;;;;;4990385;28;20088;-62
2024/01/08 01:06:04;;;;;;;4.45;2.42;;;-2.50;99.90;;;;;;5000745;28;20030;-62
2024/01/08 01:08:30;;;;;;;6.60;2.20;;;-2.50;99.90;;;;;;5001171;28;20039;-62
2024/01/08 01:10:55;;;;;;;4.22;2.00;;;-2.50;99.90;;;;;;5004218;28;20034;-62
2024/01/08 01:13:21;;;;;;;5.40;3.15;;;-2.50;99.90;;;;;;4997576;28;20124;-62
2024/01/08 01:15:46;;;;;;;3.00;2.22;;;-2.50;99.90;;;;;;5003608;28;20030;-62
2024/01/08 01:18:12;;;;;;;2.22;1.38;;;-2.50;99.90;;;;;;5001850;28;20082;-62
2024/01/08 01:20:38;;;;;;;4.65;2.35;;;-2.50;99.90;;;;;;4999532;28;20026;-61
2024/01/08 01:23:03;;;;;;;3.80;2.38;;;-2.50;99.90;;;;;;4998490;28;20110;-62
2024/01/08 01:25:29;;;;;;;2.17;1.60;;;-2.50;99.90;;;;;;4997439;28;20117;-62
2024/01/08 01:27:54;;;;;;;3.92;2.40;;;-2.40;99.90;;;;;;5002443;28;20650;-62
2024/01/08 01:30:20;;;;;;;2.72;1.90;;;-2.50;99.90;;;;;;4998565;28;20446;-63
2024/01/08 01:32:46;;;;;;;2.45;2.05;;;-2.50;99.90;;;;;;5001295;28;20022;-62
2024/01/08 01:35:11;;;;;;;3.30;2.47;;;-2.50;99.90;;;;;;4998298;28;20018;-62
2024/01/08 01:37:38;;;;;;;3.10;2.40;;;-2.50;99.90;;;;;;4999318;28;20557;-62
2024/01/08 01:40:04;;;;;;;2.97;2.15;;;-2.50;99.90;;;;;;5003170;28;20022;-62
2024/01/08 01:42:30;;;;;;;6.15;2.38;;;-2.40;99.90;;;;;;5001573;28;20028;-62
2024/01/08 01:44:55;;;;;;;2.88;1.88;;;-2.40;99.90;;;;;;4999049;28;20454;-62
2024/01/08 01:47:23;;;;;;;2.33;1.90;;;-2.40;99.90;;;;;;5000762;28;20585;-62
2024/01/08 01:49:50;;;;;;;2.25;1.73;;;-2.40;99.90;;;;;;4999552;28;20059;-61
2024/01/08 01:52:15;;;;;;;2.95;1.85;;;-2.40;99.90;;;;;;4998065;28;20522;-62
2024/01/08 01:54:42;;;;;;;4.40;2.42;;;-2.40;99.90;;;;;;5001008;28;20117;-63
2024/01/08 01:57:08;;;;;;;4.47;1.88;;;-2.40;99.90;;;;;;5000686;28;20026;-62
2024/01/08 01:59:34;;;;;;;3.17;2.22;;;-2.30;99.90;;;;;;5000462;28;20105;-62
2024/01/08 02:02:01;;;;;;;2.67;1.80;;;-2.40;99.90;;;;;;4999214;28;20026;-63
2024/01/08 02:04:29;;;;;;;3.58;2.53;;;-2.40;99.90;;;;;;4998189;28;20060;-62
2024/01/08 02:06:56;;;;;;;3.17;1.88;;;-2.30;99.90;;;;;;5002313;28;20056;-62
2024/01/08 02:09:22;;;;;;;3.60;1.77;;;-2.30;99.90;;;;;;4997346;28;20096;-63
2024/01/08 02:11:48;;;;;;;4.00;1.95;;;-2.40;99.90;;;;;;5000153;28;20062;-62
2024/01/08 02:14:15;;;;;;;5.63;2.45;;;-2.30;99.90;;;;;;4996193;28;20432;-63
2024/01/08 02:16:41;;;;;;;4.45;2.38;;;-2.30;99.90;;;;;;4999530;28;20133;-63
2024/01/08 02:19:08;;;;;;;2.72;2.10;;;-2.40;99.90;;;;;;4999194;28;20061;-62
2024/01/08 02:21:34;;;;;;;3.67;2.03;;;-2.40;99.90;;;;;;5001484;28;20041;-62
2024/01/08 02:24:00;;;;;;;1.58;1.20;;;-2.30;99.90;;;;;;4997662;28;20403;-61
2024/01/08 02:26:26;;;;;;;2.40;1.63;;;-2.40;99.90;;;;;;5002327;28;20044;-62
2024/01/08 02:28:52;;;;;;;2.70;1.67;;;-2.30;99.90;;;;;;5002113;28;20041;-63
2024/01/08 02:31:20;;;;;;;5.30;2.30;;;-2.30;99.90;;;;;;4999114;28;20078;-63
2024/01/08 02:33:45;;;;;;;3.10;1.88;;;-2.30;99.90;;;;;;4999920;28;20024;-62
2024/01/08 02:36:11;;;;;;;2.70;1.77;;;-2.30;99.90;;;;;;5001338;28;20018;-63
2024/01/08 02:38:37;;;;;;;2.58;1.92;;;-2.30;99.90;;;;;;4999088;28;20026;-62
2024/01/08 02:41:02;;;;;;;6.80;2.30;;;-2.30;99.90;;;;;;5001449;28;20075;-63
2024/01/08 02:43:28;;;;;;;2.88;2.15;;;-2.20;99.90;;;;;;4998779;28;20030;-62
2024/01/08 02:45:53;;;;;;;2.63;1.63;;;-2.20;99.90;;;;;;5000754;28;20069;-62
2024/01/08 02:48:19;;;;;;;2.28;1.77;;;-2.20;99.90;;;;;;5001102;28;20045;-62
2024/01/08 02:50:44;;;;;;;3.08;1.90;;;-2.20;99.90;;;;;;4999228;28;20034;-63
2024/01/08 02:53:10;;;;;;;4.28;2.25;;;-2.20;99.90;;;;;;5000928;28;20030;-63
2024/01/08 02:55:35;;;;;;;2.85;1.80;;;-2.20;99.90;;;;;;4998631;28;20027;-63
2024/01/08 02:58:05;;;;;;;2.30;1.60;;;-2.20;99.90;;;;;;5003675;28;20370;-63
2024/01/08 03:00:30;;;;;;;4.07;1.80;;;-2.20;99.90;;;;;;5001157;28;20034;-63
2024/01/08 03:02:56;;;;;;;3.08;1.75;;;-2.10;99.90;;;;;;5002465;28;20128;-62
2024/01/08 03:05:21;;;;;;;3.25;1.80;;;-2.10;99.90;;;;;;4999429;28;20034;-61
2024/01/08 03:07:47;;;;;;;4.20;1.48;;;-2.10;99.90;;;;;;4998108;28;20422;-62
2024/01/08 03:10:13;;;;;;;1.77;1.35;;;-2.10;99.90;;;;;;5001914;28;20030;-63
2024/01/08 03:12:38;;;;;;;7.25;1.70;;;-2.10;99.90;;;;;;4999215;28;20022;-63
2024/01/08 03:15:04;;;;;;;5.00;1.52;;;-2.10;99.90;;;;;;4997265;28;20030;-62
2024/01/08 03:17:30;;;;;;;2.10;1.45;;;-2.10;99.90;;;;;;4999674;28;20026;-61
2024/01/08 03:19:56;;;;;;;1.98;1.67;;;-2.10;99.90;;;;;;5001414;28;20550;-63
2024/01/08 03:22:21;;;;;;;2.05;1.60;;;-2.10;99.90;;;;;;5001562;28;20022;-63
2024/01/08 03:24:47;;;;;;;1.63;1.38;;;-2.10;99.90;;;;;;4998081;28;20034;-62
2024/01/08 03:27:12;;;;;;;5.07;1.70;;;-2.10;99.90;;;;;;5002081;28;20026;-61
2024/01/08 03:29:38;;;;;;;2.53;1.58;;;-2.10;99.90;;;;;;4998335;28;20109;-63
2024/01/08 03:32:04;;;;;;;3.78;2.15;;;-2.10;99.90;;;;;;5000586;28;20046;-63
2024/01/08 03:34:30;;;;;;;4.65;1.85;;;-2.10;99.90;;;;;;5000129;28;20422;-63
2024/01/08 03:36:55;;;;;;;2.55;1.60;;;-2.10;99.90;;;;;;4999959;28;20068;-63
2024/01/08 03:39:21;;;;;;;3.53;1.52;;;-2.10;99.90;;;;;;5000966;28;20034;-62
2024/01/08 03:41:46;;;;;;;3.38;1.60;;;-2.00;99.90;;;;;;5001628;28;20539;-62
2024/01/08 03:44:14;;;;;;;6.40;1.70;;;-2.10;99.90;;;;;;4998641;28;20038;-62
2024/01/08 03:46:39;;;;;;;3.85;1.60;;;-2.00;99.90;;;;;;5001610;28;20436;-62
2024/01/08 03:49:05;;;;;;;3.47;1.90;;;-2.00;99.90;;;;;;5002330;28;20025;-62
2024/01/08 03:51:32;;;;;;;2.45;1.40;;;-2.10;99.90;;;;;;5000103;28;20413;-62
2024/01/08 03:53:57;;;;;;;3.25;1.77;;;-2.00;99.90;;;;;;5001836;28;20430;-63
2024/01/08 03:56:23;;;;;;;2.63;1.90;;;-2.00;99.90;;;;;;4998244;28;20018;-61
2024/01/08 03:58:48;;;;;;;4.18;1.60;;;-2.00;99.90;;;;;;5001240;28;20414;-63
2024/01/08 04:01:14;;;;;;;2.67;1.65;;;-2.00;99.90;;;;;;4997819;28;20112;-63
2024/01/08 04:03:40;;;;;;;3.75;1.95;;;-2.00;99.90;;;;;;4995994;28;20034;-63
2024/01/08 04:06:06;;;;;;;2.50;1.50;;;-2.00;99.90;;;;;;4999203;28;20033;-63
2024/01/08 04:08:31;;;;;;;4.07;1.77;;;-2.00;99.90;;;;;;4997339;28;20168;-63
2024/01/08 04:10:57;;;;;;;5.07;2.03;;;-2.00;99.90;;;;;;5000149;28;20038;-63
2024/01/08 04:13:22;;;;;;;4.35;1.70;;;-2.00;99.90;;;;;;4997370;28;20133;-63
2024/01/08 04:15:48;;;;;;;4.68;1.75;;;-2.00;99.90;;;;;;4996043;28;20037;-63
2024/01/08 04:18:14;;;;;;;3.15;1.73;;;-2.00;99.90;;;;;;4997723;28;20022;-62
2024/01/08 04:20:40;;;;;;;3.65;1.77;;;-2.00;99.90;;;;;;4997037;28;20041;-61
2024/01/08 04:23:05;;;;;;;2.65;1.70;;;-2.00;99.90;;;;;;4996843;28;20035;-62
2024/01/08 04:25:31;;;;;;;3.10;1.83;;;-2.00;99.90;;;;;;5001051;28;20490;-62
2024/01/08 04:27:57;;;;;;;4.07;2.70;;;-2.00;99.90;;;;;;5004354;28;20487;-63
2024/01/08 04:30:22;;;;;;;3.20;1.63;;;-2.10;99.90;;;;;;5005350;28;20526;-63
2024/01/08 04:32:48;;;;;;;5.10;1.98;;;-2.00;99.90;;;;;;5003794;28;20418;-62
2024/01/08 04:35:14;;;;;;;3.65;1.95;;;-2.10;99.90;;;;;;5004938;28;20590;-62
2024/01/08 04:37:40;;;;;;;5.90;2.00;;;-2.10;99.90;;;;;;5001286;28;20038;-62
2024/01/08 04:40:07;;;;;;;3.80;1.92;;;-2.10;99.90;;;;;;5004106;28;20084;-61
2024/01/08 04:42:32;;;;;;;4.13;2.08;;;-2.00;99.90;;;;;;5001589;28;20052;-63
2024/01/08 04:44:58;;;;;;;3.85;2.10;;;-2.10;99.90;;;;;;5005248;28;20259;-63
2024/01/08 04:47:23;;;;;;;3.63;2.08;;;-2.00;99.90;;;;;;5002930;28;20038;-61
2024/01/08 04:49:49;;;;;;;6.15;1.98;;;-2.00;99.90;;;;;;4999979;28;20036;-62
2024/01/08 04:52:15;;;;;;;5.07;2.30;;;-2.00;99.90;;;;;;5003461;28;20026;-63
2024/01/08 04:54:42;;;;;;;4.38;2.17;;;-2.00;99.90;;;;;;5003394;28;20034;-63
2024/01/08 04:57:08;;;;;;;3.08;2.03;;;-2.00;99.90;;;;;;5002349;28;20237;-63
2024/01/08 04:59:39;;;;;;;3.90;2.00;;;-2.00;99.90;;;;;;5004018;28;20202;-63
2024/01/08 05:02:04;;;;;;;3.30;1.75;;;-2.00;99.90;;;;;;4997984;28;20104;-62
2024/01/08 05:04:30;;;;;;;3.75;2.40;;;-2.00;99.90;;;;;;5001670;28;20087;-62
2024/01/08 05:06:55;;;;;;;2.35;1.90;;;-2.00;99.90;;;;;;5004026;28;20108;-61
2024/01/08 05:09:21;;;;;;;3.78;2.08;;;-2.00;99.90;;;;;;5003299;28;20025;-62
2024/01/08 05:11:47;;;;;;;6.00;2.40;;;-2.00;99.90;;;;;;5001429;28;20188;-61
2024/01/08 05:14:12;;;;;;;5.03;2.50;;;-2.00;99.90;;;;;;5002956;28;20037;-61
2024/01/08 05:16:38;;;;;;;3.20;1.50;;;-2.00;99.90;;;;;;5002892;28;20022;-62
2024/01/08 05:19:03;;;;;;;5.80;2.72;;;-2.00;99.90;;;;;;5000701;28;20017;-61
2024/01/08 05:21:29;;;;;;;4.53;1.80;;;-1.90;99.90;;;;;;5003328;28;20038;-62
2024/01/08 05:23:54;;;;;;;8.40;2.35;;;-1.90;99.90;;;;;;5003594;28;20042;-61
2024/01/08 05:26:20;;;;;;;3.40;2.05;;;-2.00;99.90;;;;;;5002516;28;20490;-62
2024/01/08 05:28:46;;;;;;;4.40;2.35;;;-2.00;99.90;;;;;;5001442;28;20538;-61
2024/01/08 05:31:11;;;;;;;2.47;1.90;;;-1.90;99.90;;;;;;5000458;28;20042;-62
2024/01/08 05:33:37;;;;;;;4.53;2.10;;;-1.90;99.90;;;;;;5002707;28;20135;-61
2024/01/08 05:36:06;;;;;;;2.00;1.58;;;-1.90;99.90;;;;;;5001614;28;20026;-61
2024/01/08 05:38:31;;;;;;;5.93;1.90;;;-1.90;99.90;;;;;;5003411;28;20545;-61
2024/01/08 05:40:57;;;;;;;4.97;2.10;;;-1.90;99.90;;;;;;5001557;28;20030;-62
2024/01/08 05:43:22;;;;;;;2.33;1.38;;;-1.90;99.90;;;;;;5000697;28;20091;-61
2024/01/08 05:45:49;;;;;;;3.55;1.55;;;-1.90;99.90;;;;;;5004229;28;20021;-62
2024/01/08 05:48:14;;;;;;;2.88;1.77;;;-1.90;99.90;;;;;;5003003;28;20018;-62
2024/01/08 05:50:40;;;;;;;2.70;1.63;;;-1.90;99.90;;;;;;5001147;28;20415;-61
2024/01/08 05:53:06;;;;;;;2.10;1.90;;;-1.90;99.90;;;;;;5001021;28;20026;-62
2024/01/08 05:55:31;;;;;;;3.40;1.80;;;-1.90;99.90;;;;;;4999228;28;20026;-63
2024/01/08 05:57:57;;;;;;;1.90;1.75;;;-1.90;99.90;;;;;;5000832;28;20038;-62
2024/01/08 06:00:23;;;;;;;2.35;1.55;;;-1.90;99.90;;;;;;4999415;28;20022;-61
2024/01/08 06:02:48;;;;;;;3.97;1.83;;;-1.90;99.90;;;;;;5000302;28;20407;-62
2024/01/08 06:05:14;;;;;;;2.50;1.67;;;-1.90;99.90;;;;;;4998935;28;20174;-63
2024/01/08 06:07:39;;;;;;;7.13;2.10;;;-1.90;99.90;;;;;;4999684;28;20039;-62
2024/01/08 06:10:06;;;;;;;3.97;2.25;;;-1.90;99.90;;;;;;5001629;28;20030;-62
2024/01/08 06:12:31;;;;;;;2.58;1.88;;;-1.90;99.90;;;;;;4997939;28;20035;-62
2024/01/08 06:14:57;;;;;;;6.65;2.08;;;-1.90;99.90;;;;;;5001633;28;20038;-62
2024/01/08 06:17:23;;;;;;;3.40;1.90;;;-1.90;99.90;;;;;;4995555;28;20050;-62
2024/01/08 06:19:48;;;;;;;4.10;2.05;;;-1.90;99.90;;;;;;4997858;28;20091;-63
2024/01/08 06:22:15;;;;;;;5.15;2.25;;;-1.90;99.90;;;;;;4998445;28;20030;-62
2024/01/08 06:24:41;;;;;;;4.88;1.80;;;-1.90;99.90;;;;;;5001930;28;20033;-62
2024/01/08 06:27:06;;;;;;;4.57;2.30;;;-1.90;99.90;;;;;;4999141;28;20041;-61
2024/01/08 06:29:32;;;;;;;4.65;2.58;;;-1.90;99.90;;;;;;4998370;28;20572;-62
2024/01/08 06:31:58;;;;;;;4.85;2.20;;;-1.80;99.90;;;;;;5000917;28;20034;-63
2024/01/08 06:34:24;;;;;;;2.15;1.52;;;-1.80;99.90;;;;;;5001801;28;20042;-62
2024/01/08 06:36:49;;;;;;;3.58;1.85;;;-1.80;99.90;;;;;;5000447;28;20033;-62
2024/01/08 06:39:15;;;;;;;3.53;1.83;;;-1.80;99.90;;;;;;5004152;28;20505;-62
2024/01/08 06:41:40;;;;;;;2.28;1.58;;;-1.80;99.90;;;;;;5002072;28;20026;-61
2024/01/08 06:44:06;;;;;;;1.80;1.45;;;-1.80;99.90;;;;;;5016161;28;20029;-62
2024/01/08 06:46:31;;;;;;;1.67;1.40;;;-1.70;99.90;;;;;;5000977;28;20048;-62
2024/01/08 06:49:00;;;;;;;1.83;1.30;;;-1.70;99.90;;;;;;5002421;28;20105;-61
2024/01/08 06:51:25;;;;;;;2.00;1.42;;;-1.70;99.90;;;;;;4999269;28;20099;-62
2024/01/08 06:53:51;;;;;;;2.38;1.60;;;-1.70;99.90;;;;;;4999855;28;20112;-62
2024/01/08 06:56:16;;;;;;;2.58;1.52;;;-1.70;99.90;;;;;;5003803;28;20034;-62
2024/01/08 06:58:42;;;;;;;2.80;1.38;;;-1.70;99.90;;;;;;5001161;28;20028;-62
2024/01/08 07:01:07;;;;;;;2.10;1.90;;;-1.70;99.90;;;;;;5000728;28;20037;-61
2024/01/08 07:03:34;;;;;;;1.25;1.15;;;-1.60;99.90;;;;;;5000936;28;20417;-65
2024/01/08 07:06:01;;;;;;;1.52;1.35;;;-1.60;99.90;;;;;;5002725;28;20053;-62
2024/01/08 07:08:27;;;;;;;1.42;1.17;;;-1.60;99.90;;;;;;5002142;28;20042;-62
2024/01/08 07:10:52;;;;;;;2.92;1.48;;;-1.60;99.90;;;;;;5001550;28;20036;-63
2024/01/08 07:13:18;;;;;;;2.50;1.63;;;-1.70;99.90;;;;;;4998471;28;20030;-63
2024/01/08 07:15:46;;;;;;;1.42;1.17;;;-1.70;99.90;;;;;;5000424;28;20026;-62
2024/01/08 07:18:12;;;;;;;5.28;1.70;;;-1.70;99.90;;;;;;4996045;28;20125;-62
2024/01/08 07:20:39;;;;;;;3.22;1.35;;;-1.80;99.90;;;;;;4999172;28;20144;-63
2024/01/08 07:23:08;;;;;;;2.53;1.23;;;-1.80;99.90;;;;;;4999105;28;20032;-63
2024/01/08 07:25:37;;;;;;;2.88;1.48;;;-1.80;99.90;;;;;;4999439;28;20026;-62
2024/01/08 07:28:08;;;;;;;2.47;1.38;;;-1.80;99.90;;;;;;5001850;28;20034;-62
2024/01/08 07:30:34;;;;;;;2.92;1.52;;;-1.90;99.90;;;;;;4995855;28;20409;-62
2024/01/08 07:33:00;;;;;;;1.92;1.08;;;-1.90;99.90;;;;;;5000517;28;20041;-63
2024/01/08 07:35:26;;;;;;;3.05;1.52;;;-1.90;99.90;;;;;;4999050;28;21433;-62
2024/01/08 07:37:55;;;;;;;2.03;1.10;;;-1.90;99.90;;;;;;5000345;28;20088;-62
2024/01/08 07:40:25;;;;;;;1.88;1.52;;;-1.90;99.90;;;;;;4998653;28;20205;-62
2024/01/08 07:42:54;;;;;;;3.67;1.63;;;-1.90;99.90;;;;;;4999787;28;20533;-62
2024/01/08 07:45:25;;;;;;;2.85;1.25;;;-1.90;99.90;;;;;;5001629;28;20092;-62
2024/01/08 07:47:51;;;;;;;3.72;1.63;;;-2.00;99.90;;;;;;4999862;28;20034;-62
2024/01/08 07:50:17;;;;;;;4.60;1.40;;;-2.00;99.90;;;;;;4998394;28;20038;-62
2024/01/08 07:52:43;;;;;;;2.30;1.55;;;-2.00;99.90;;;;;;5002137;28;20034;-62
2024/01/08 07:55:09;;;;;;;5.10;1.73;;;-2.00;99.90;;;;;;4998384;28;20041;-62
2024/01/08 07:57:35;;;;;;;2.53;1.63;;;-2.00;99.90;;;;;;5001590;28;20041;-62
2024/01/08 08:00:02;;;;;;;2.63;1.60;;;-2.00;99.90;;;;;;5002628;28;20021;-62
2024/01/08 08:02:27;;;;;;;1.83;1.42;;;-2.00;99.90;;;;;;5005014;28;20609;-62
2024/01/08 08:04:53;;;;;;;3.08;1.50;;;-2.10;99.90;;;;;;5003275;28;20113;-63
2024/01/08 08:07:19;;;;;;;1.83;1.52;;;-2.10;99.90;;;;;;5004197;28;20037;-61
2024/01/08 08:09:45;;;;;;;3.22;1.67;;;-2.10;99.90;;;;;;5005029;28;20263;-62
2024/01/08 08:12:11;;;;;;;2.47;1.38;;;-2.20;99.90;;;;;;5003096;28;20033;-62
2024/01/08 08:14:36;;;;;;;4.93;1.58;;;-2.20;99.90;;;;;;5000868;28;20052;-62
2024/01/08 08:17:05;;;;;;;3.45;1.67;;;-2.10;99.90;;;;;;4999961;28;20030;-62
2024/01/08 08:19:31;;;;;;;3.47;2.10;;;-2.20;99.90;;;;;;5003494;28;20033;-62
2024/01/08 08:21:56;;;;;;;2.60;1.42;;;-2.20;99.90;;;;;;5003218;28;20038;-62
2024/01/08 08:24:23;;;;;;;3.17;1.33;;;-2.20;99.90;;;;;;5002688;28;20116;-61
2024/01/08 08:26:48;;;;;;;2.10;1.20;;;-2.10;99.90;;;;;;4998717;28;20069;-61
2024/01/08 08:29:14;;;;;;;3.83;1.60;;;-2.10;99.90;;;;;;4999502;28;20117;-61
2024/01/08 08:31:39;;;;;;;1.75;1.60;;;-2.10;99.90;;;;;;5001261;28;20279;-62
2024/01/08 08:34:05;;;;;;;2.45;1.50;;;-2.10;99.90;;;;;;5005659;28;20163;-62
2024/01/08 08:36:31;;;;;;;3.90;1.70;;;-2.00;99.90;;;;;;5004740;28;20065;-62
2024/01/08 08:38:56;;;;;;;3.15;1.40;;;-2.00;99.90;;;;;;5004242;28;20505;-62
2024/01/08 08:41:22;;;;;;;2.30;1.58;;;-2.00;99.90;;;;;;5004236;28;20057;-62
2024/01/08 08:43:48;;;;;;;2.00;1.60;;;-2.00;99.90;;;;;;5001923;28;20040;-61
2024/01/08 08:46:15;;;;;;;3.22;1.73;;;-1.90;99.90;;;;;;5002784;28;20022;-62
2024/01/08 08:48:41;;;;;;;2.42;1.80;;;-1.90;99.90;;;;;;5003141;28;20029;-62
2024/01/08 08:51:07;;;;;;;5.50;1.80;;;-1.90;99.90;;;;;;5003822;28;20103;-61
2024/01/08 08:53:32;;;;;;;3.83;1.75;;;-1.90;99.90;;;;;;5001143;28;20041;-62
2024/01/08 08:55:58;;;;;;;2.95;1.80;;;-1.90;99.90;;;;;;5004324;28;20057;-61
2024/01/08 08:58:23;;;;;;;2.50;1.70;;;-1.80;99.90;;;;;;5002173;28;20461;-62
2024/01/08 09:00:49;;;;;;;6.22;2.45;;;-1.70;99.90;;;;;;5002874;28;20044;-62
2024/01/08 09:03:15;;;;;;;2.50;1.98;;;-1.70;99.90;;;;;;5001941;28;20479;-62
2024/01/08 09:05:41;;;;;;;2.55;1.48;;;-1.60;99.90;;;;;;5002579;28;20037;-62
2024/01/08 09:08:06;;;;;;;2.40;1.98;;;-1.60;99.90;;;;;;5004543;28;20481;-60
2024/01/08 09:10:33;;;;;;;7.38;2.40;;;-1.60;99.90;;;;;;5000009;28;20568;-62
2024/01/08 09:12:58;;;;;;;3.65;2.08;;;-1.50;99.90;;;;;;5001920;28;20030;-61
2024/01/08 09:15:24;;;;;;;3.13;1.95;;;-1.50;99.90;;;;;;4998726;28;20068;-63
2024/01/08 09:17:49;;;;;;;3.33;1.92;;;-1.40;99.90;;;;;;5003847;28;20244;-61
2024/01/08 09:20:15;;;;;;;4.80;2.20;;;-1.40;99.90;;;;;;5000415;28;20445;-62
2024/01/08 09:22:42;;;;;;;3.35;1.85;;;-1.30;99.90;;;;;;5002474;28;20025;-63
2024/01/08 09:25:08;;;;;;;3.35;2.33;;;-1.20;99.90;;;;;;4999021;28;20255;-62
2024/01/08 09:27:34;;;;;;;3.95;1.75;;;-1.20;99.90;;;;;;5002837;28;20121;-62
2024/01/08 09:29:59;;;;;;;2.47;1.83;;;-1.10;99.90;;;;;;5004956;28;20488;-62
2024/01/08 09:32:25;;;;;;;2.70;1.77;;;-1.10;99.90;;;;;;5000503;28;20073;-62
2024/01/08 09:34:51;;;;;;;4.28;1.80;;;-1.10;99.90;;;;;;5004446;28;20034;-62
2024/01/08 09:37:17;;;;;;;5.30;1.90;;;-1.10;99.90;;;;;;5001037;28;20030;-62
2024/01/08 09:39:42;;;;;;;4.00;2.03;;;-1.10;99.90;;;;;;5000996;28;20048;-62
2024/01/08 09:42:09;;;;;;;2.78;1.60;;;-1.00;99.90;;;;;;5001456;28;20034;-62
2024/01/08 09:44:38;;;;;;;3.90;1.60;;;-1.00;99.90;;;;;;4999980;28;20027;-62
2024/01/08 09:47:04;;;;;;;4.32;1.60;;;-0.90;99.90;;;;;;5004116;28;20029;-61
2024/01/08 09:49:32;;;;;;;2.55;2.05;;;-0.90;99.90;;;;;;5002457;28;20104;-62
2024/01/08 09:52:01;;;;;;;2.45;1.73;;;-0.90;99.90;;;;;;4999715;28;20048;-62
2024/01/08 09:54:29;;;;;;;2.47;1.88;;;-0.90;99.90;;;;;;4998857;28;20038;-62
2024/01/08 09:56:58;;;;;;;2.63;1.98;;;-0.90;99.90;;;;;;5002825;28;20382;-61
2024/01/08 09:59:24;;;;;;;1.75;1.40;;;-0.90;99.90;;;;;;5000166;28;20490;-62
2024/01/08 10:01:50;;;;;;;2.28;1.73;;;-0.90;99.90;;;;;;5001075;28;20025;-61
2024/01/08 10:04:16;;;;;;;2.17;1.55;;;-0.90;99.90;;;;;;4999730;28;20454;-63
2024/01/08 10:06:44;;;;;;;3.15;1.80;;;-0.80;99.90;;;;;;5004946;28;20486;-63
2024/01/08 10:09:12;;;;;;;2.22;1.80;;;-0.80;99.90;;;;;;5003708;28;20112;-63
2024/01/08 10:11:39;;;;;;;4.32;1.63;;;-0.80;99.90;;;;;;4998420;28;20030;-62
2024/01/08 10:14:07;;;;;;;2.40;1.45;;;-0.80;99.90;;;;;;5004322;28;20033;-62
2024/01/08 10:16:32;;;;;;;4.38;1.25;;;-0.80;99.90;;;;;;5002111;28;20030;-62
2024/01/08 10:18:58;;;;;;;2.70;1.35;;;-0.80;99.90;;;;;;5003760;28;20026;-62
2024/01/08 10:21:25;;;;;;;3.33;1.85;;;-0.70;99.90;;;;;;4999181;28;20041;-63
2024/01/08 10:23:50;;;;;;;2.15;1.75;;;-0.70;99.90;;;;;;5003299;28;20030;-62
2024/01/08 10:26:17;;;;;;;2.30;1.90;;;-0.60;99.90;;;;;;4999677;28;20144;-61
2024/01/08 10:28:45;;;;;;;2.72;1.75;;;-0.70;99.90;;;;;;5001510;28;20167;-63
2024/01/08 10:31:12;;;;;;;2.80;1.98;;;-0.60;99.90;;;;;;5002264;28;20413;-61
2024/01/08 10:33:38;;;;;;;2.97;1.50;;;-0.60;99.90;;;;;;5001258;28;20048;-62
2024/01/08 10:36:04;;;;;;;2.83;1.50;;;-0.60;99.90;;;;;;5000795;28;20031;-62
2024/01/08 10:38:32;;;;;;;4.32;1.85;;;-0.60;99.90;;;;;;4997745;28;20041;-63
2024/01/08 10:40:57;;;;;;;3.50;2.20;;;-0.60;99.90;;;;;;4996753;28;20655;-63
2024/01/08 10:43:24;;;;;;;3.85;2.05;;;-0.60;99.90;;;;;;5002508;28;20023;-64
2024/01/08 10:45:56;;;;;;;6.68;2.50;;;-0.60;99.90;;;;;;4998879;28;20538;-63
2024/01/08 10:48:26;;;;;;;1.95;1.80;;;-0.50;99.90;;;;;;5000128;28;20030;-62
2024/01/08 10:50:57;;;;;;;3.63;1.80;;;-0.50;99.90;;;;;;5004227;28;20043;-62
2024/01/08 10:53:45;;;;;;;3.95;1.67;;;-0.50;99.90;;;;;;4998975;28;20080;-62
2024/01/08 10:56:20;;;;;;;3.05;1.80;;;-0.50;99.90;;;;;;5002778;28;20068;-62
2024/01/08 10:58:55;;;;;;;2.83;1.83;;;-0.40;99.90;;;;;;5000317;28;20426;-63
2024/01/08 11:01:21;;;;;;;2.50;1.65;;;-0.40;99.90;;;;;;4998670;28;20608;-61
2024/01/08 11:03:47;;;;;;;6.00;1.85;;;-0.30;99.90;;;;;;5001696;28;20040;-62
2024/01/08 11:06:13;;;;;;;2.17;1.92;;;-0.30;99.90;;;;;;5014418;28;20030;-62
2024/01/08 11:08:42;;;;;;;3.97;1.38;;;-0.30;99.90;;;;;;5000179;28;20457;-63
2024/01/08 11:11:09;;;;;;;2.85;1.52;;;-0.20;99.90;;;;;;5000275;28;20022;-62
2024/01/08 11:13:35;;;;;;;2.92;1.80;;;-0.20;99.90;;;;;;4996457;28;20158;-63
2024/01/08 11:16:06;;;;;;;2.33;1.15;;;-0.20;99.90;;;;;;5000350;28;20600;-62
2024/01/08 11:18:32;;;;;;;1.90;1.65;;;-0.20;99.90;;;;;;4998350;28;20054;-64
2024/01/08 11:20:59;;;;;;;3.75;1.13;;;-0.20;99.90;;;;;;5001386;28;20066;-63
2024/01/08 11:23:31;;;;;;;4.90;1.85;;;-0.10;99.90;;;;;;4995125;28;20030;-63
2024/01/08 11:25:56;;;;;;;4.20;1.30;;;-0.10;99.90;;;;;;4999518;28;20029;-63
2024/01/08 11:28:22;;;;;;;0.90;0.80;;;-0.10;99.90;;;;;;4997221;28;20030;-62
2024/01/08 11:31:04;;;;;;;1.70;1.30;;;-0.10;99.90;;;;;;5003188;28;20022;-63
2024/01/08 11:33:47;;;;;;;1.70;1.15;;;-0.10;99.90;;;;;;4997207;28;20053;-64
2024/01/08 11:36:17;;;;;;;1.17;1.00;;;-0.10;99.90;;;;;;5003029;28;20129;-64
2024/01/08 11:39:07;;;;;;;1.63;1.05;;;-0.10;99.90;;;;;;5000607;28;20025;-63
2024/01/08 11:41:34;;;;;;;2.45;1.17;;;-0.10;99.90;;;;;;4996014;28;20032;-63
2024/01/08 11:43:59;;;;;;;1.80;1.40;;;-0.20;99.90;;;;;;4999976;28;20026;-63
2024/01/08 11:46:25;;;;;;;3.40;1.17;;;-0.10;99.90;;;;;;5000817;28;20036;-62
2024/01/08 11:48:50;;;;;;;1.30;0.85;;;-0.10;99.90;;;;;;5005469;28;20103;-63
2024/01/08 11:51:17;;;;;;;1.15;1.05;;;0.00;99.90;;;;;;5004773;28;20033;-63
2024/01/08 11:53:45;;;;;;;1.60;1.13;;;0.00;99.90;;;;;;5002664;28;20022;-64
2024/01/08 11:56:11;;;;;;;1.35;1.10;;;0.00;99.90;;;;;;5006797;28;20034;-63
2024/01/08 11:58:37;;;;;;;1.73;1.10;;;-0.10;99.90;;;;;;5004455;28;20092;-63
2024/01/08 12:01:18;;;;;;;2.10;0.98;;;-0.10;99.90;;;;;;5004969;28;20053;-62
2024/01/08 12:03:43;;;;;;;2.22;1.30;;;-0.20;99.90;;;;;;5005093;28;20589;-63
2024/01/08 12:06:09;;;;;;;2.20;1.55;;;-0.10;99.90;;;;;;5001775;28;20041;-62
2024/01/08 12:08:34;;;;;;;1.83;1.10;;;-0.20;99.90;;;;;;4994740;28;20029;-63
2024/01/08 12:11:04;;;;;;;2.70;1.30;;;-0.20;99.90;;;;;;5000722;28;20030;-64
2024/01/08 12:13:30;;;;;;;1.60;1.35;;;-0.20;99.90;;;;;;4996832;28;20483;-62
2024/01/08 12:15:57;;;;;;;2.58;1.52;;;-0.20;99.90;;;;;;5004696;28;20108;-63
2024/01/08 12:18:23;;;;;;;1.95;1.30;;;-0.20;99.90;;;;;;5000311;28;20273;-64
2024/01/08 12:20:50;;;;;;;4.07;1.70;;;-0.20;99.90;;;;;;5003129;28;20018;-64
2024/01/08 12:23:15;;;;;;;2.90;1.70;;;-0.20;99.90;;;;;;5004850;28;20053;-64
2024/01/08 12:25:41;;;;;;;4.03;1.52;;;-0.10;99.90;;;;;;5002601;28;20069;-64
2024/01/08 12:28:07;;;;;;;2.00;1.38;;;-0.20;99.90;;;;;;5002449;28;20112;-64
2024/01/08 12:30:33;;;;;;;2.78;1.60;;;-0.20;99.90;;;;;;4999217;28;20076;-61
2024/01/08 12:32:58;;;;;;;2.88;1.67;;;-0.10;99.90;;;;;;5001621;28;20029;-61
2024/01/08 12:35:24;;;;;;;1.50;1.02;;;-0.20;99.90;;;;;;4999278;28;20038;-61
2024/01/08 12:37:50;;;;;;;1.65;1.20;;;-0.10;99.90;;;;;;5002962;28;20030;-64
2024/01/08 12:40:16;;;;;;;1.98;1.60;;;-0.10;99.90;;;;;;4997964;28;20022;-62
2024/01/08 12:42:44;;;;;;;2.35;1.50;;;-0.10;99.90;;;;;;4998428;28;20031;-63